Time;durP1;ratioP1;P1;durP2;ratioP2;P2;SDS_P1;SDS_P2;PMS_P1;PMS_P2;Temp;Humidity;BMP_temperature;BMP_pressure;BME280_temperature;BME280_humidity;BME280_pressure;Samples;Min_cycle;Max_cycle;Signal;HPM_P1;HPM_P2
2023/06/27 00:00:46;;;;;;;;;0.67;0.67;;;;;24.16;35.35;101708.59;2096247;28;45142;-58
2023/06/27 00:01:46;;;;;;;;;0.00;0.00;;;;;24.12;35.20;101697.03;2093882;28;46963;-57
2023/06/27 00:02:47;;;;;;;;;0.00;0.00;;;;;24.11;35.58;101706.16;2088384;28;46289;-56
2023/06/27 00:03:51;;;;;;;;;0.00;0.00;;;;;24.11;35.57;101708.88;2085418;28;47049;-56
2023/06/27 00:04:51;;;;;;;;;1.00;1.00;;;;;24.12;35.91;101707.03;2087891;28;46566;-56
2023/06/27 00:05:52;;;;;;;;;3.00;2.25;;;;;24.10;35.47;101709.84;2084923;28;45890;-55
2023/06/27 00:06:52;;;;;;;;;2.00;0.33;;;;;24.10;35.68;101717.09;2088148;28;46050;-57
2023/06/27 00:07:52;;;;;;;;;0.00;0.00;;;;;24.09;35.65;101710.81;2085865;28;46691;-55
2023/06/27 00:08:53;;;;;;;;;3.00;1.00;;;;;24.08;35.82;101709.94;2088235;28;45611;-55
2023/06/27 00:09:54;;;;;;;;;0.00;0.00;;;;;24.08;35.95;101711.78;2085583;28;46806;-55
2023/06/27 00:10:55;;;;;;;;;0.00;0.00;;;;;24.05;35.68;101717.41;2086810;28;45255;-56
2023/06/27 00:11:55;;;;;;;;;0.00;0.00;;;;;24.02;35.54;101714.88;2086645;28;45810;-57
2023/06/27 00:12:56;;;;;;;;;1.00;1.00;;;;;23.97;36.12;101709.72;2087824;28;46750;-55
2023/06/27 00:13:58;;;;;;;;;1.00;0.25;;;;;23.95;36.15;101708.97;2086402;28;46648;-58
2023/06/27 00:14:58;;;;;;;;;1.00;0.00;;;;;23.91;35.67;101712.84;2095278;28;45692;-57
2023/06/27 00:16:00;;;;;;;;;0.33;0.33;;;;;23.88;35.87;101710.28;2094739;28;47014;-57
2023/06/27 00:17:00;;;;;;;;;1.00;0.00;;;;;23.87;35.97;101704.97;2087035;28;45934;-57
2023/06/27 00:18:05;;;;;;;;;2.00;0.00;;;;;23.85;35.80;101706.91;2086342;28;45802;-56
2023/06/27 00:19:05;;;;;;;;;0.00;0.00;;;;;23.82;36.13;101710.69;2087330;28;45715;-59
2023/06/27 00:20:09;;;;;;;;;0.00;0.00;;;;;23.81;35.90;101711.66;2087033;28;45968;-57
2023/06/27 00:21:09;;;;;;;;;0.00;0.00;;;;;23.80;36.14;101707.19;2085973;28;46667;-58
2023/06/27 00:22:10;;;;;;;;;0.00;0.00;;;;;23.79;36.17;101710.88;2088351;28;45480;-56
2023/06/27 00:23:22;;;;;;;;;0.00;0.00;;;;;23.81;36.27;101713.50;2093868;28;45692;-55
2023/06/27 00:24:23;;;;;;;;;0.00;0.00;;;;;23.80;36.43;101717.16;2094840;28;45572;-56
2023/06/27 00:25:24;;;;;;;;;0.50;0.50;;;;;23.79;36.28;101713.59;2086731;28;46776;-56
2023/06/27 00:26:25;;;;;;;;;0.00;0.00;;;;;23.77;35.82;101716.41;2087768;28;45989;-56
2023/06/27 00:27:25;;;;;;;;;1.50;0.00;;;;;23.74;36.03;101713.84;2086364;28;46750;-55
2023/06/27 00:28:26;;;;;;;;;0.00;0.00;;;;;23.71;36.39;101714.03;2087343;28;45906;-55
2023/06/27 00:29:27;;;;;;;;;0.00;0.00;;;;;23.70;36.02;101715.00;2086147;28;46428;-57
2023/06/27 00:30:27;;;;;;;;;0.00;0.00;;;;;23.71;36.34;101719.47;2088879;28;45405;-55
2023/06/27 00:31:27;;;;;;;;;0.00;0.00;;;;;23.71;36.24;101718.59;2087213;28;45924;-56
2023/06/27 00:32:28;;;;;;;;;0.67;0.67;;;;;23.69;36.38;101715.09;2104351;28;45648;-58
2023/06/27 00:33:28;;;;;;;;;0.33;0.33;;;;;23.68;36.42;101722.38;2090318;28;45522;-57
2023/06/27 00:34:28;;;;;;;;;1.00;0.00;;;;;23.69;36.65;101718.69;2080182;28;46406;-56
2023/06/27 00:35:32;;;;;;;;;1.00;1.00;;;;;23.67;36.35;101717.91;2088603;28;45969;-57
2023/06/27 00:36:33;;;;;;;;;0.75;0.75;;;;;23.67;36.60;101719.75;2084408;28;45658;-57
2023/06/27 00:37:33;;;;;;;;;0.00;0.00;;;;;23.66;36.37;101721.59;2082935;28;45849;-56
2023/06/27 00:38:33;;;;;;;;;0.67;0.67;;;;;23.67;36.54;101719.75;2081073;28;46207;-55
2023/06/27 00:39:34;;;;;;;;;1.67;1.67;;;;;23.68;36.40;101716.94;2080772;28;46000;-55
2023/06/27 00:40:34;;;;;;;;;1.00;1.00;;;;;23.70;36.67;101723.13;2080703;28;45936;-55
2023/06/27 00:41:34;;;;;;;;;0.00;0.00;;;;;23.72;36.74;101720.34;2088202;28;45953;-56
2023/06/27 00:42:35;;;;;;;;;0.33;0.33;;;;;23.72;36.59;101717.63;2088981;28;46196;-57
2023/06/27 00:43:35;;;;;;;;;1.00;1.00;;;;;23.73;36.76;101716.66;2089177;28;45469;-56
2023/06/27 00:44:36;;;;;;;;;0.00;0.00;;;;;23.75;36.78;101717.44;2084847;28;46111;-56
2023/06/27 00:45:36;;;;;;;;;0.00;0.00;;;;;23.74;36.42;101715.69;2089153;28;45485;-57
2023/06/27 00:46:39;;;;;;;;;0.33;0.00;;;;;23.75;36.47;101714.72;2081910;28;45906;-56
2023/06/27 00:47:40;;;;;;;;;0.50;0.50;;;;;23.74;36.65;101716.56;2086902;28;46290;-55
2023/06/27 00:48:40;;;;;;;;;0.00;0.00;;;;;23.74;36.73;101721.97;2088352;28;45958;-56
2023/06/27 00:49:41;;;;;;;;;0.00;0.00;;;;;23.74;36.70;101719.28;2088657;28;45929;-55
2023/06/27 00:50:44;;;;;;;;;0.00;0.00;;;;;23.74;36.64;101721.09;2084755;28;45432;-56
2023/06/27 00:51:47;;;;;;;;;1.25;0.00;;;;;23.74;36.61;101719.28;2081745;28;47034;-56
2023/06/27 00:52:48;;;;;;;;;0.00;0.00;;;;;23.72;36.62;101718.50;2087667;28;45708;-56
2023/06/27 00:53:48;;;;;;;;;1.00;1.00;;;;;23.73;36.78;101722.06;2088157;28;46939;-56
2023/06/27 00:54:49;;;;;;;;;0.00;0.00;;;;;23.73;36.68;101727.50;2095835;28;45183;-55
2023/06/27 00:55:50;;;;;;;;;0.00;0.00;;;;;23.72;37.08;101720.34;2096251;28;45769;-55
2023/06/27 00:56:53;;;;;;;;;0.00;0.00;;;;;23.72;36.66;101720.34;2087785;28;45555;-56
2023/06/27 00:57:54;;;;;;;;;2.00;0.00;;;;;23.70;36.94;101720.44;2087607;28;45494;-54
2023/06/27 00:58:58;;;;;;;;;0.00;0.00;;;;;23.68;36.91;101725.09;2088039;28;46004;-56
2023/06/27 00:59:59;;;;;;;;;0.25;0.25;;;;;23.68;36.91;101718.78;2088039;28;46428;-55
2023/06/27 01:01:00;;;;;;;;;0.00;0.00;;;;;23.68;37.16;101722.38;2087956;28;46441;-56
2023/06/27 01:02:01;;;;;;;;;0.00;0.00;;;;;23.65;36.75;101727.97;2087707;28;46299;-55
2023/06/27 01:03:02;;;;;;;;;1.00;1.00;;;;;23.64;37.01;101719.94;2081363;28;45926;-56
2023/06/27 01:04:03;;;;;;;;;1.00;1.00;;;;;23.61;36.99;101723.69;2088906;28;45711;-57
2023/06/27 01:05:06;;;;;;;;;0.00;0.00;;;;;23.58;37.23;101723.88;2085290;28;45565;-57
2023/06/27 01:06:18;;;;;;;;;0.00;0.00;;;;;23.58;36.96;101723.88;2087901;28;45779;-57
2023/06/27 01:07:25;;;;;;;;;0.00;0.00;;;;;23.56;37.05;101727.63;2094160;28;45357;-56
2023/06/27 01:08:34;;;;;;;;;1.00;0.00;;;;;23.54;36.74;101732.25;2088221;28;44972;-56
2023/06/27 01:09:48;;;;;;;;;2.50;1.00;;;;;23.51;37.01;101729.75;2088476;28;45871;-56
2023/06/27 01:11:08;;;;;;;;;0.00;0.00;;;;;23.48;36.94;101725.34;2088180;28;46751;-57
2023/06/27 01:12:20;;;;;;;;;0.00;0.00;;;;;23.45;36.85;101718.28;2087691;28;47555;-55
2023/06/27 01:13:30;;;;;;;;;1.00;1.00;;;;;23.42;36.93;101717.63;2088336;28;48607;-57
2023/06/27 01:14:33;;;;;;;;;0.25;0.25;;;;;23.40;36.92;101716.84;2088526;28;45709;-56
2023/06/27 01:15:35;;;;;;;;;3.00;1.00;;;;;23.39;37.13;101710.53;2088035;28;46532;-57
2023/06/27 01:16:37;;;;;;;;;1.25;1.25;;;;;23.39;37.02;101717.81;2088181;28;46659;-58
2023/06/27 01:17:38;;;;;;;;;1.00;0.00;;;;;23.37;36.92;101714.28;2088073;28;46715;-56
2023/06/27 01:18:41;;;;;;;;;0.00;0.00;;;;;23.35;36.94;101716.22;2088242;28;46319;-57
2023/06/27 01:19:44;;;;;;;;;0.50;0.50;;;;;23.33;36.98;101710.91;2084526;28;46066;-56
2023/06/27 01:20:44;;;;;;;;;0.25;0.25;;;;;23.32;37.01;101708.28;2079605;28;45946;-57
2023/06/27 01:21:48;;;;;;;;;1.00;0.00;;;;;23.31;37.25;101715.53;2079551;28;45690;-56
2023/06/27 01:23:16;;;;;;;;;1.00;0.75;;;;;23.32;37.23;101713.69;2082751;28;45441;-55
2023/06/27 01:24:17;;;;;;;;;1.00;1.00;;;;;23.30;37.21;101713.78;2087680;28;45930;-57
2023/06/27 01:25:18;;;;;;;;;0.75;0.75;;;;;23.29;37.26;101708.47;2087824;28;46793;-56
2023/06/27 01:26:18;;;;;;;;;1.00;1.00;;;;;23.28;37.26;101707.59;2088149;28;46098;-55
2023/06/27 01:27:19;;;;;;;;;1.00;0.00;;;;;23.28;37.46;101720.28;2088141;28;45606;-56
2023/06/27 01:28:19;;;;;;;;;0.00;0.00;;;;;23.27;36.97;101711.28;2080659;28;45020;-57
2023/06/27 01:29:19;;;;;;;;;2.00;0.67;;;;;23.26;37.23;101708.66;2083026;28;45837;-57
2023/06/27 01:30:20;;;;;;;;;0.00;0.00;;;;;23.24;37.52;101716.84;2089328;28;45203;-56
2023/06/27 01:31:33;;;;;;;;;0.33;0.33;;;;;23.23;37.12;101712.41;2089508;28;46272;-55
2023/06/27 01:32:40;;;;;;;;;0.00;0.00;;;;;23.21;37.22;101711.63;2089207;28;46566;-56
2023/06/27 01:33:51;;;;;;;;;1.00;0.00;;;;;23.20;37.21;101715.28;2089950;28;45864;-57
2023/06/27 01:34:57;;;;;;;;;0.50;0.00;;;;;23.18;37.54;101715.38;2081356;28;45784;-57
2023/06/27 01:36:13;;;;;;;;;1.00;0.75;;;;;23.18;37.63;101709.09;2086974;28;46382;-56
2023/06/27 01:37:25;;;;;;;;;0.00;0.00;;;;;23.16;37.53;101708.31;2085592;28;46622;-56
2023/06/27 01:38:35;;;;;;;;;2.25;0.75;;;;;23.14;38.06;101703.00;2081141;28;46117;-55
2023/06/27 01:39:41;;;;;;;;;0.75;0.50;;;;;23.12;37.69;101704.94;2088208;28;46946;-56
2023/06/27 01:40:44;;;;;;;;;0.00;0.00;;;;;23.11;37.53;101700.44;2089117;28;46187;-55
2023/06/27 01:41:50;;;;;;;;;1.00;1.00;;;;;23.09;37.84;101699.66;2090002;28;45577;-55
2023/06/27 01:42:53;;;;;;;;;3.25;1.00;;;;;;;;2089678;28;46287;-56
2023/06/27 01:43:55;;;;;;;;;0.00;0.00;;;;;23.06;37.77;101704.41;2087504;28;45756;-55
2023/06/27 01:44:56;;;;;;;;;0.00;0.00;;;;;23.04;38.22;101695.50;2089189;28;46381;-56
2023/06/27 01:45:57;;;;;;;;;0.50;0.50;;;;;23.02;37.63;101697.44;2090060;28;46455;-55
2023/06/27 01:46:57;;;;;;;;;2.00;1.00;;;;;22.99;37.60;101701.16;2088949;28;46120;-56
2023/06/27 01:47:58;;;;;;;;;0.00;0.00;;;;;22.95;37.47;101699.59;2081114;28;46225;-56
2023/06/27 01:48:59;;;;;;;;;1.75;1.00;;;;;22.92;37.96;101696.22;2092941;28;45546;-56
2023/06/27 01:50:01;;;;;;;;;2.00;1.00;;;;;22.88;38.21;101700.94;2096359;28;46208;-56
2023/06/27 01:51:07;;;;;;;;;1.25;1.25;;;;;22.85;38.00;101699.25;2088369;28;45924;-56
2023/06/27 01:52:13;;;;;;;;;0.00;0.00;;;;;22.82;38.25;101704.81;2089126;28;47749;-57
2023/06/27 01:53:14;;;;;;;;;0.00;0.00;;;;;22.81;38.16;101700.38;2089395;28;46330;-56
2023/06/27 01:54:14;;;;;;;;;2.00;0.00;;;;;22.80;38.33;101700.47;2089195;28;46260;-56
2023/06/27 01:55:14;;;;;;;;;0.67;0.67;;;;;22.80;38.33;101701.31;2090066;28;46460;-56
2023/06/27 01:56:15;;;;;;;;;0.00;0.00;;;;;22.81;38.40;101699.50;2089572;28;45573;-57
2023/06/27 01:57:15;;;;;;;;;0.00;0.00;;;;;22.81;38.24;101705.78;2089243;28;45536;-56
2023/06/27 01:58:15;;;;;;;;;1.00;1.00;;;;;22.79;38.32;101704.13;2089469;28;45550;-57
2023/06/27 01:59:16;;;;;;;;;2.00;2.00;;;;;22.80;38.38;101701.31;2088885;28;46370;-58
2023/06/27 02:00:16;;;;;;;;;0.00;0.00;;;;;22.81;38.51;101707.63;2089422;28;46142;-55
2023/06/27 02:01:17;;;;;;;;;0.00;0.00;;;;;22.79;38.70;101704.13;2089533;28;45490;-57
2023/06/27 02:02:18;;;;;;;;;0.00;0.00;;;;;22.78;38.64;101700.53;2089657;28;45580;-58
2023/06/27 02:03:19;;;;;;;;;0.00;0.00;;;;;22.77;38.21;101703.34;2089117;28;46290;-57
2023/06/27 02:04:19;;;;;;;;;0.00;0.00;;;;;22.74;38.64;101698.09;2089417;28;45596;-56
2023/06/27 02:05:19;;;;;;;;;0.00;0.00;;;;;22.72;38.68;101700.88;2088984;28;45888;-55
2023/06/27 02:06:20;;;;;;;;;1.00;1.00;;;;;22.69;38.89;101701.06;2088719;28;45798;-57
2023/06/27 02:07:20;;;;;;;;;0.00;0.00;;;;;22.69;38.43;101697.47;2088074;28;45894;-57
2023/06/27 02:08:20;;;;;;;;;0.00;0.00;;;;;22.68;38.81;101695.75;2088836;28;46589;-56
2023/06/27 02:09:21;;;;;;;;;1.33;1.33;;;;;22.68;38.89;101695.75;2088733;28;46183;-55
2023/06/27 02:10:21;;;;;;;;;0.00;0.00;;;;;22.66;38.96;101694.97;2089606;28;47821;-55
2023/06/27 02:11:22;;;;;;;;;0.33;0.33;;;;;22.66;38.99;101700.38;2090511;28;46471;-55
2023/06/27 02:12:22;;;;;;;;;0.00;0.00;;;;;22.66;38.71;101703.06;2089208;28;46207;-55
2023/06/27 02:13:22;;;;;;;;;0.00;0.00;;;;;22.65;38.97;101699.50;2089181;28;45714;-56
2023/06/27 02:14:23;;;;;;;;;1.67;1.67;;;;;22.66;38.91;101703.94;2105313;28;46201;-56
2023/06/27 02:15:23;;;;;;;;;1.00;1.00;;;;;22.66;39.04;101703.94;2105277;28;46358;-57
2023/06/27 02:16:23;;;;;;;;;0.67;0.67;;;;;22.65;38.95;101707.63;2089074;28;45519;-56
2023/06/27 02:17:24;;;;;;;;;0.00;0.00;;;;;22.64;39.21;101702.28;2089270;28;46188;-56
2023/06/27 02:18:24;;;;;;;;;1.00;1.00;;;;;22.63;39.27;101698.72;2088990;28;46192;-56
2023/06/27 02:19:24;;;;;;;;;0.00;0.00;;;;;22.63;39.49;101704.13;2089437;28;47287;-56
2023/06/27 02:20:26;;;;;;;;;1.33;0.00;;;;;22.63;39.46;101703.25;2089953;28;45062;-58
2023/06/27 02:21:26;;;;;;;;;0.00;0.00;;;;;22.62;39.62;101702.38;2090045;28;46311;-56
2023/06/27 02:22:26;;;;;;;;;2.67;1.00;;;;;22.62;39.58;101702.38;2089759;28;45501;-55
2023/06/27 02:23:26;;;;;;;;;0.00;0.00;;;;;22.64;39.22;101710.41;2090129;28;45869;-57
2023/06/27 02:24:27;;;;;;;;;0.00;0.00;;;;;22.63;39.37;101700.56;2090022;28;45557;-56
2023/06/27 02:25:27;;;;;;;;;1.00;1.00;;;;;22.61;39.58;101704.22;2089238;28;45801;-57
2023/06/27 02:26:27;;;;;;;;;0.00;0.00;;;;;22.60;39.62;101704.28;2087007;28;45526;-57
2023/06/27 02:27:28;;;;;;;;;1.33;0.33;;;;;22.59;39.44;101703.41;2086412;28;46189;-56
2023/06/27 02:28:28;;;;;;;;;1.00;0.00;;;;;22.56;39.68;101706.28;2088554;28;45868;-55
2023/06/27 02:29:28;;;;;;;;;1.00;1.00;;;;;22.54;39.86;101700.09;2088437;28;46022;-54
2023/06/27 02:30:29;;;;;;;;;0.67;0.67;;;;;22.53;39.37;101711.00;2089034;28;46288;-54
2023/06/27 02:31:29;;;;;;;;;0.00;0.00;;;;;22.52;39.67;101717.38;2089120;28;46182;-56
2023/06/27 02:32:29;;;;;;;;;1.00;1.00;;;;;22.48;39.47;101710.38;2088687;28;45593;-55
2023/06/27 02:33:30;;;;;;;;;1.00;1.00;;;;;22.46;39.83;101712.28;2089188;28;46381;-55
2023/06/27 02:34:30;;;;;;;;;3.00;0.00;;;;;22.43;39.65;101709.78;2088825;28;45492;-57
2023/06/27 02:35:31;;;;;;;;;0.00;0.00;;;;;22.40;40.20;101702.72;2089087;28;45704;-56
2023/06/27 02:36:31;;;;;;;;;0.00;0.00;;;;;22.41;40.10;101707.16;2088974;28;46409;-54
2023/06/27 02:37:32;;;;;;;;;1.00;0.00;;;;;22.41;40.15;101712.56;2088856;28;45588;-56
2023/06/27 02:38:32;;;;;;;;;1.00;1.00;;;;;22.42;39.95;101710.72;2088959;28;47211;-54
2023/06/27 02:39:32;;;;;;;;;3.67;1.33;;;;;22.40;39.56;101705.41;2096915;28;45037;-55
2023/06/27 02:40:33;;;;;;;;;2.00;2.00;;;;;22.40;40.18;101712.66;2096449;28;45182;-55
2023/06/27 02:41:33;;;;;;;;;1.00;1.00;;;;;22.41;40.30;101711.69;2089314;28;46077;-56
2023/06/27 02:42:33;;;;;;;;;2.00;2.00;;;;;22.41;40.17;101709.00;2089351;28;45220;-56
2023/06/27 02:43:34;;;;;;;;;2.00;2.00;;;;;22.41;40.24;101715.28;2089373;28;46048;-56
2023/06/27 02:44:34;;;;;;;;;0.00;0.00;;;;;22.42;40.31;101716.13;2087546;28;45476;-58
2023/06/27 02:45:36;;;;;;;;;0.33;0.00;;;;;22.41;39.92;101709.84;2089375;28;45811;-55
2023/06/27 02:46:36;;;;;;;;;3.00;0.75;;;;;22.41;40.42;101715.28;2081008;28;46044;-56
2023/06/27 02:47:36;;;;;;;;;1.33;0.67;;;;;22.42;40.33;101718.84;2080696;28;45059;-57
2023/06/27 02:48:37;;;;;;;;;1.00;0.00;;;;;22.42;40.03;101714.31;2080328;28;45751;-58
2023/06/27 02:49:37;;;;;;;;;2.00;0.00;;;;;22.44;40.61;101714.22;2080242;28;46388;-55
2023/06/27 02:50:37;;;;;;;;;0.67;0.67;;;;;22.44;40.16;101720.50;2080220;28;45235;-57
2023/06/27 02:51:38;;;;;;;;;1.00;1.00;;;;;22.44;40.45;101725.03;2085373;28;46057;-56
2023/06/27 02:52:38;;;;;;;;;2.00;1.67;;;;;22.42;40.33;101719.72;2088317;28;46309;-56
2023/06/27 02:53:38;;;;;;;;;1.00;1.00;;;;;22.44;40.64;101709.69;2087203;28;45740;-58
2023/06/27 02:54:39;;;;;;;;;0.67;0.67;;;;;22.47;40.47;101719.44;2096787;28;45843;-56
2023/06/27 02:55:39;;;;;;;;;2.00;2.00;;;;;22.48;40.07;101722.06;2097104;28;45135;-55
2023/06/27 02:56:39;;;;;;;;;4.00;2.33;;;;;22.49;40.33;101720.25;2088416;28;46545;-56
2023/06/27 02:57:39;;;;;;;;;1.00;1.00;;;;;22.48;39.99;101715.78;2088878;28;46362;-57
2023/06/27 02:58:40;;;;;;;;;1.00;1.00;;;;;22.46;40.46;101713.16;2088783;28;46186;-56
2023/06/27 02:59:40;;;;;;;;;2.00;2.00;;;;;22.43;40.44;101701.66;2088617;28;45821;-57
2023/06/27 03:00:41;;;;;;;;;2.00;1.00;;;;;22.40;40.49;101710.81;2088533;28;45429;-58
2023/06/27 03:01:41;;;;;;;;;1.00;0.00;;;;;22.37;40.62;101707.41;2087668;28;46119;-55
2023/06/27 03:02:41;;;;;;;;;1.67;1.33;;;;;22.34;40.70;101721.97;2096527;28;45251;-55
2023/06/27 03:03:43;;;;;;;;;2.00;2.00;;;;;22.32;40.77;101711.22;2096419;28;46864;-55
2023/06/27 03:04:46;;;;;;;;;0.00;0.00;;;;;22.31;40.73;101714.03;2088954;28;46735;-57
2023/06/27 03:05:47;;;;;;;;;3.25;2.75;;;;;22.29;40.84;101719.53;2088882;28;45927;-56
2023/06/27 03:06:47;;;;;;;;;1.33;1.33;;;;;22.26;40.63;101711.56;2088445;28;46353;-57
2023/06/27 03:07:47;;;;;;;;;1.33;1.33;;;;;22.26;40.70;101713.41;2088741;28;45403;-55
2023/06/27 03:08:49;;;;;;;;;1.00;0.67;;;;;22.24;40.61;101715.34;2088885;28;45567;-55
2023/06/27 03:09:49;;;;;;;;;0.00;0.00;;;;;22.21;40.58;101713.66;2090598;28;46014;-55
2023/06/27 03:10:49;;;;;;;;;0.00;0.00;;;;;22.18;40.96;101716.53;2088023;28;46342;-55
2023/06/27 03:11:50;;;;;;;;;2.33;1.00;;;;;22.18;41.10;101710.25;2088601;28;46550;-55
2023/06/27 03:12:50;;;;;;;;;1.00;1.00;;;;;22.17;40.86;101712.06;2088955;28;46182;-55
2023/06/27 03:13:50;;;;;;;;;3.33;2.33;;;;;22.17;40.69;101705.78;2089099;28;46129;-56
2023/06/27 03:14:51;;;;;;;;;0.67;0.67;;;;;22.16;40.62;101714.88;2088818;28;46042;-56
2023/06/27 03:15:51;;;;;;;;;2.00;1.00;;;;;22.14;41.29;101711.38;2089195;28;46019;-57
2023/06/27 03:16:54;;;;;;;;;2.00;2.00;;;;;22.12;41.36;101708.75;2088739;28;46570;-55
2023/06/27 03:17:54;;;;;;;;;0.75;0.75;;;;;22.12;41.24;101707.88;2088318;28;46566;-55
2023/06/27 03:18:54;;;;;;;;;2.00;2.00;;;;;22.12;41.46;101706.06;2088779;28;46834;-55
2023/06/27 03:19:55;;;;;;;;;0.00;0.00;;;;;22.13;40.90;101709.63;2088620;28;45860;-55
2023/06/27 03:20:55;;;;;;;;;0.00;0.00;;;;;22.13;41.20;101710.50;2089195;28;46281;-56
2023/06/27 03:21:55;;;;;;;;;2.00;1.67;;;;;22.13;41.36;101707.78;2088952;28;45435;-55
2023/06/27 03:22:56;;;;;;;;;2.00;2.00;;;;;22.12;41.15;101703.34;2088614;28;46306;-57
2023/06/27 03:23:56;;;;;;;;;0.00;0.00;;;;;22.11;40.98;101701.59;2088701;28;47750;-55
2023/06/27 03:24:56;;;;;;;;;1.67;1.00;;;;;22.11;41.66;101707.00;2088965;28;47519;-55
2023/06/27 03:25:57;;;;;;;;;1.00;1.00;;;;;22.10;41.48;101704.38;2088596;28;45866;-57
2023/06/27 03:26:57;;;;;;;;;1.33;1.33;;;;;22.09;40.89;101699.91;2088433;28;45758;-54
2023/06/27 03:27:59;;;;;;;;;0.67;0.67;;;;;22.08;41.60;101701.75;2087660;28;46657;-55
2023/06/27 03:28:59;;;;;;;;;1.00;1.00;;;;;22.09;41.20;101705.31;2088844;28;46320;-56
2023/06/27 03:29:59;;;;;;;;;0.33;0.33;;;;;22.10;41.51;101704.38;2088942;28;46651;-57
2023/06/27 03:31:00;;;;;;;;;2.00;2.00;;;;;22.10;41.21;101707.06;2089454;28;46052;-57
2023/06/27 03:32:00;;;;;;;;;5.00;1.67;;;;;22.07;40.96;101705.41;2089086;28;45790;-56
2023/06/27 03:33:00;;;;;;;;;1.00;0.00;;;;;22.08;41.45;101703.59;2089006;28;45739;-55
2023/06/27 03:34:01;;;;;;;;;2.00;2.00;;;;;22.07;41.33;101704.53;2088878;28;46043;-56
2023/06/27 03:35:01;;;;;;;;;2.00;1.00;;;;;22.08;41.25;101704.44;2088638;28;45650;-55
2023/06/27 03:36:02;;;;;;;;;1.00;1.00;;;;;22.07;41.67;101693.72;2088432;28;46069;-56
2023/06/27 03:37:03;;;;;;;;;0.25;0.25;;;;;22.08;41.57;101690.06;2088425;28;47629;-57
2023/06/27 03:38:03;;;;;;;;;1.00;1.00;;;;;22.08;41.22;101693.63;2088903;28;45776;-55
2023/06/27 03:39:04;;;;;;;;;2.33;1.67;;;;;22.06;41.29;101691.97;2088064;28;46245;-56
2023/06/27 03:40:05;;;;;;;;;2.67;1.00;;;;;22.07;41.30;101693.72;2087351;28;46577;-55
2023/06/27 03:41:06;;;;;;;;;2.25;1.50;;;;;22.08;41.43;101696.34;2084460;28;46470;-57
2023/06/27 03:42:06;;;;;;;;;0.67;0.67;;;;;22.10;41.59;101698.97;2088729;28;46099;-56
2023/06/27 03:43:10;;;;;;;;;0.00;0.00;;;;;22.10;41.42;101702.53;2088759;28;46183;-56
2023/06/27 03:44:10;;;;;;;;;1.50;1.50;;;;;22.11;41.25;101693.50;2089331;28;46173;-57
2023/06/27 03:45:11;;;;;;;;;2.33;2.00;;;;;22.10;41.49;101686.31;2088444;28;45492;-58
2023/06/27 03:46:12;;;;;;;;;1.33;1.33;;;;;22.11;41.78;101693.50;2087994;28;46233;-56
2023/06/27 03:47:12;;;;;;;;;2.00;2.00;;;;;22.10;41.47;101686.31;2088511;28;45885;-56
2023/06/27 03:48:13;;;;;;;;;1.33;1.33;;;;;22.11;41.46;101688.09;2081496;28;46794;-57
2023/06/27 03:49:13;;;;;;;;;1.00;1.00;;;;;22.12;41.55;101684.44;2081640;28;46335;-55
2023/06/27 03:50:14;;;;;;;;;0.00;0.00;;;;;22.11;41.69;101689.91;2088712;28;46531;-56
2023/06/27 03:51:14;;;;;;;;;0.67;0.00;;;;;22.09;41.74;101687.28;2088288;28;45479;-55
2023/06/27 03:52:14;;;;;;;;;2.00;1.33;;;;;22.09;41.39;101689.09;2087949;28;45546;-56
2023/06/27 03:53:15;;;;;;;;;1.00;1.00;;;;;22.06;41.33;101690.16;2088704;28;47332;-56
2023/06/27 03:54:15;;;;;;;;;1.00;1.00;;;;;22.04;41.77;101694.75;2088502;28;45649;-57
2023/06/27 03:55:15;;;;;;;;;2.00;2.00;;;;;22.03;41.58;101693.00;2088010;28;46715;-56
2023/06/27 03:56:16;;;;;;;;;0.00;0.00;;;;;22.00;41.83;101693.16;2088592;28;46852;-57
2023/06/27 03:57:16;;;;;;;;;2.00;2.00;;;;;21.97;41.30;101694.19;2088095;28;45808;-56
2023/06/27 03:58:16;;;;;;;;;1.00;0.33;;;;;21.95;41.43;101698.81;2088558;28;45930;-56
2023/06/27 03:59:17;;;;;;;;;0.67;0.67;;;;;21.95;41.32;101687.13;2088807;28;45616;-56
2023/06/27 04:00:17;;;;;;;;;1.67;1.67;;;;;21.94;41.64;101688.94;2088461;28;46075;-57
2023/06/27 04:01:18;;;;;;;;;1.67;1.00;;;;;21.94;41.51;101688.94;2088345;28;45861;-56
2023/06/27 04:02:18;;;;;;;;;2.00;2.00;;;;;21.94;42.08;101696.19;2088736;28;46680;-56
2023/06/27 04:03:18;;;;;;;;;2.00;2.00;;;;;21.92;41.99;101690.00;2089217;28;45986;-56
2023/06/27 04:04:19;;;;;;;;;2.00;0.67;;;;;21.91;41.74;101699.06;2087775;28;45931;-56
2023/06/27 04:05:20;;;;;;;;;3.00;2.00;;;;;21.88;41.80;101688.41;2084440;28;46838;-58
2023/06/27 04:06:20;;;;;;;;;3.25;0.75;;;;;21.88;41.84;101693.81;2088630;28;46961;-58
2023/06/27 04:07:21;;;;;;;;;0.00;0.00;;;;;21.89;42.13;101698.28;2088319;28;46000;-57
2023/06/27 04:08:21;;;;;;;;;0.67;0.00;;;;;21.88;42.25;101694.69;2088901;28;46472;-57
2023/06/27 04:09:21;;;;;;;;;1.00;1.00;;;;;21.89;42.06;101695.56;2090372;28;45396;-56
2023/06/27 04:10:21;;;;;;;;;0.67;0.00;;;;;21.87;41.83;101692.94;2094763;28;46505;-56
2023/06/27 04:11:22;;;;;;;;;1.00;1.00;;;;;21.86;42.54;101699.31;2088725;28;45884;-56
2023/06/27 04:12:22;;;;;;;;;1.67;1.67;;;;;21.84;42.04;101700.31;2088390;28;45321;-55
2023/06/27 04:13:22;;;;;;;;;1.67;1.67;;;;;21.83;42.17;101699.44;2088681;28;45556;-58
2023/06/27 04:14:23;;;;;;;;;1.33;1.33;;;;;21.83;42.46;101695.88;2088403;28;45548;-56
2023/06/27 04:15:23;;;;;;;;;2.33;1.33;;;;;21.82;42.59;101699.53;2088936;28;45612;-56
2023/06/27 04:16:23;;;;;;;;;1.67;1.00;;;;;21.82;42.47;101700.41;2088119;28;46413;-56
2023/06/27 04:17:24;;;;;;;;;1.00;0.00;;;;;21.83;42.61;101699.44;2088866;28;45992;-57
2023/06/27 04:18:24;;;;;;;;;1.00;0.00;;;;;21.84;42.79;101697.63;2095603;28;45827;-57
2023/06/27 04:19:24;;;;;;;;;2.00;2.00;;;;;21.85;42.46;101702.97;2096512;28;46010;-55
2023/06/27 04:20:25;;;;;;;;;1.00;1.00;;;;;21.84;42.43;101701.19;2087829;28;45924;-55
2023/06/27 04:21:25;;;;;;;;;1.33;1.33;;;;;21.85;42.38;101705.69;2088283;28;45615;-57
2023/06/27 04:22:25;;;;;;;;;0.00;0.00;;;;;21.84;42.24;101703.03;2087301;28;46735;-57
2023/06/27 04:23:26;;;;;;;;;1.00;1.00;;;;;21.83;42.74;101691.34;2088384;28;46030;-56
2023/06/27 04:24:26;;;;;;;;;2.33;2.33;;;;;21.84;42.07;101701.19;2088266;28;46600;-57
2023/06/27 04:25:30;;;;;;;;;0.33;0.33;;;;;21.84;42.90;101700.31;2088551;28;45649;-56
2023/06/27 04:26:30;;;;;;;;;1.25;1.25;;;;;21.85;42.28;101702.06;2087996;28;46135;-57
2023/06/27 04:27:31;;;;;;;;;2.33;1.00;;;;;21.84;42.87;101709.31;2089158;28;45869;-55
2023/06/27 04:28:31;;;;;;;;;4.00;1.00;;;;;21.85;43.04;101700.28;2088093;28;45982;-57
2023/06/27 04:29:31;;;;;;;;;1.67;1.33;;;;;21.86;42.45;101706.53;2088629;28;45456;-56
2023/06/27 04:30:32;;;;;;;;;2.00;1.00;;;;;21.86;42.78;101703.84;2089287;28;46164;-56
2023/06/27 04:31:32;;;;;;;;;1.33;1.33;;;;;21.87;42.60;101708.28;2085574;28;45714;-54
2023/06/27 04:32:33;;;;;;;;;1.67;1.00;;;;;21.87;42.59;101702.88;2084714;28;46772;-55
2023/06/27 04:33:35;;;;;;;;;1.33;1.33;;;;;21.88;42.71;101701.94;2088432;28;45128;-57
2023/06/27 04:34:36;;;;;;;;;1.00;1.00;;;;;21.89;42.68;101706.38;2088292;28;46521;-56
2023/06/27 04:35:38;;;;;;;;;1.75;1.75;;;;;21.89;43.05;101707.25;2088154;28;45327;-56
2023/06/27 04:36:40;;;;;;;;;2.00;2.00;;;;;21.89;42.60;101706.38;2084194;28;46776;-56
2023/06/27 04:37:41;;;;;;;;;1.25;1.25;;;;;21.89;43.01;101707.25;2082494;28;46631;-56
2023/06/27 04:38:42;;;;;;;;;1.00;1.00;;;;;21.89;42.76;101709.09;2088504;28;45383;-57
2023/06/27 04:39:42;;;;;;;;;0.00;0.00;;;;;21.88;42.66;101708.22;2088461;28;44994;-56
2023/06/27 04:40:42;;;;;;;;;2.00;2.00;;;;;21.89;42.62;101700.97;2087940;28;48863;-56
2023/06/27 04:41:43;;;;;;;;;1.67;1.00;;;;;21.89;42.61;101704.53;2088358;28;46449;-56
2023/06/27 04:42:43;;;;;;;;;1.00;1.00;;;;;21.90;43.21;101702.72;2087837;28;45036;-56
2023/06/27 04:43:44;;;;;;;;;0.33;0.33;;;;;21.91;42.61;101699.06;2088348;28;45678;-56
2023/06/27 04:44:44;;;;;;;;;1.67;1.67;;;;;21.91;42.98;101699.94;2091921;28;45495;-56
2023/06/27 04:45:44;;;;;;;;;0.67;0.67;;;;;21.91;42.74;101694.53;2104065;28;45741;-56
2023/06/27 04:46:45;;;;;;;;;2.00;2.00;;;;;21.89;42.87;101699.13;2088142;28;46266;-55